createdAt,value
2019-04-19T00:00:11.362Z,91.94
2019-04-19T00:01:11.143Z,91.03
2019-04-19T00:02:11.804Z,91.03
2019-04-19T00:03:12.699Z,91.70
2019-04-19T00:04:12.199Z,91.70
2019-04-19T00:05:07.906Z,91.42
2019-04-19T00:06:16.265Z,91.13
2019-04-19T00:07:13.190Z,91.99
2019-04-19T00:08:21.128Z,91.99
2019-04-19T00:09:25.196Z,92.27
2019-04-19T00:10:23.676Z,91.80
2019-04-19T00:11:18.932Z,91.99
2019-04-19T00:12:21.837Z,91.61
2019-04-19T00:13:08.275Z,91.80
2019-04-19T00:14:08.522Z,91.70
2019-04-19T00:15:07.842Z,92.27
2019-04-19T00:16:08.816Z,92.08
2019-04-19T00:17:13.991Z,92.18
2019-04-19T00:18:11.813Z,92.46
2019-04-19T00:19:39.918Z,92.84
2019-04-19T00:20:40.013Z,92.27
2019-04-19T00:21:23.621Z,92.36
2019-04-19T00:22:26.486Z,92.36
2019-04-19T00:23:20.266Z,92.94
2019-04-19T00:24:08.202Z,92.94
2019-04-19T00:25:09.224Z,93.41
2019-04-19T00:26:08.567Z,93.23
2019-04-19T00:27:09.636Z,93.60
2019-04-19T00:28:08.760Z,93.55
2019-04-19T00:29:19.016Z,93.60
2019-04-19T00:30:23.740Z,93.37
2019-04-19T00:31:21.527Z,93.70
2019-04-19T00:32:24.128Z,93.08
2019-04-19T00:33:17.852Z,93.89
2019-04-19T00:34:08.596Z,93.79
2019-04-19T00:35:09.487Z,93.18
2019-04-19T00:36:11.174Z,93.84
2019-04-19T00:37:09.889Z,93.65
2019-04-19T00:38:14.474Z,93.65
2019-04-19T00:39:23.999Z,93.46
2019-04-19T00:40:28.385Z,93.37
2019-04-19T00:41:26.916Z,93.84
2019-04-19T00:42:28.155Z,93.84
2019-04-19T00:43:26.300Z,93.84
2019-04-19T00:44:28.373Z,93.65
2019-04-19T00:45:23.701Z,94.03
2019-04-19T00:46:25.125Z,94.51
2019-04-19T00:47:24.721Z,93.65
2019-04-19T00:49:21.750Z,94.32
2019-04-19T00:50:18.126Z,94.22
2019-04-19T00:51:20.126Z,94.03
2019-04-19T00:52:23.414Z,94.51
2019-04-19T00:53:22.458Z,94.03
2019-04-19T00:54:17.834Z,94.70
2019-04-19T00:55:16.600Z,94.79
2019-04-19T00:56:15.269Z,94.42
2019-04-19T00:57:19.145Z,94.42
2019-04-19T00:58:16.323Z,94.42
2019-04-19T00:59:12.720Z,94.89
2019-04-19T01:00:11.881Z,95.03
2019-04-19T01:01:16.959Z,95.03
2019-04-19T01:02:14.042Z,94.56
2019-04-19T01:03:11.834Z,94.56
2019-04-19T01:04:15.605Z,94.93
2019-04-19T01:05:14.675Z,94.74
2019-04-19T01:06:15.091Z,95.32
2019-04-19T01:07:14.919Z,95.22
2019-04-19T01:08:14.934Z,95.03
2019-04-19T01:09:24.034Z,95.22
2019-04-19T01:10:26.965Z,95.41
2019-04-19T01:11:24.916Z,95.32
2019-04-19T01:12:20.461Z,94.65
2019-04-19T01:13:17.812Z,95.32
2019-04-19T01:14:20.209Z,95.32
2019-04-19T01:15:22.354Z,95.03
2019-04-19T01:16:21.189Z,95.12
2019-04-19T01:17:22.504Z,95.32
2019-04-19T01:18:23.349Z,95.22
2019-04-19T01:19:14.466Z,95.32
2019-04-19T01:20:12.306Z,95.51
2019-04-19T01:21:11.362Z,95.79
2019-04-19T01:22:16.181Z,95.70
2019-04-19T01:23:13.822Z,94.84
2019-04-19T01:24:11.189Z,95.22
2019-04-19T01:25:20.503Z,95.51
2019-04-19T01:26:13.613Z,95.41
2019-04-19T01:27:13.206Z,95.60
2019-04-19T01:28:15.937Z,95.22
2019-04-19T01:29:12.877Z,95.12
2019-04-19T01:30:10.786Z,95.60
2019-04-19T01:31:16.461Z,95.22
2019-04-19T01:32:15.133Z,95.41
2019-04-19T01:33:10.903Z,95.41
2019-04-19T01:34:16.602Z,95.22
2019-04-19T01:35:15.102Z,95.12
2019-04-19T01:36:11.017Z,95.75
2019-04-19T01:37:16.206Z,95.65
2019-04-19T01:38:13.200Z,95.32
2019-04-19T01:39:25.534Z,95.08
2019-04-19T01:40:26.211Z,95.65
2019-04-19T01:41:24.955Z,95.65
2019-04-19T01:42:32.279Z,95.36
2019-04-19T01:43:27.885Z,95.27
2019-04-19T01:44:27.958Z,95.46
2019-04-19T01:45:26.786Z,96.31
2019-04-19T01:46:26.632Z,95.75
2019-04-19T01:47:30.422Z,95.46
2019-04-19T01:48:29.768Z,95.84
2019-04-19T01:49:21.365Z,95.84
2019-04-19T01:50:25.043Z,95.55
2019-04-19T01:51:29.413Z,95.84
2019-04-19T01:52:36.778Z,96.12
2019-04-19T01:53:28.190Z,95.84
2019-04-19T01:54:32.378Z,95.55
2019-04-19T01:55:18.959Z,96.12
2019-04-19T01:56:15.560Z,96.03
2019-04-19T01:57:14.304Z,96.03
2019-04-19T01:58:16.148Z,96.03
2019-04-19T01:59:12.028Z,95.55
2019-04-19T02:00:16.939Z,96.22
2019-04-19T02:01:17.576Z,96.03
2019-04-19T02:02:16.077Z,95.75
2019-04-19T02:03:12.638Z,96.12
2019-04-19T02:04:18.294Z,95.94
2019-04-19T02:05:16.229Z,95.65
2019-04-19T02:06:15.038Z,96.03
2019-04-19T02:07:18.017Z,95.94
2019-04-19T02:08:14.466Z,95.55
2019-04-19T02:09:24.595Z,95.84
2019-04-19T02:10:22.586Z,96.31
2019-04-19T02:11:25.139Z,96.88
2019-04-19T02:12:26.196Z,95.84
2019-04-19T02:13:21.860Z,96.50
2019-04-19T02:14:20.381Z,95.94
2019-04-19T02:15:20.693Z,95.84
2019-04-19T02:16:17.026Z,96.31
2019-04-19T02:17:16.044Z,96.12
2019-04-19T02:18:20.757Z,95.79
2019-04-19T02:19:18.862Z,96.26
2019-04-19T02:20:14.062Z,96.17
2019-04-19T02:21:21.385Z,95.89
2019-04-19T02:22:20.427Z,96.55
2019-04-19T02:23:15.657Z,95.79
2019-04-19T02:24:12.869Z,95.89
2019-04-19T02:25:19.869Z,96.36
2019-04-19T02:26:16.621Z,96.55
2019-04-19T02:27:16.438Z,96.55
2019-04-19T02:28:19.915Z,96.17
2019-04-19T02:29:17.721Z,95.60
2019-04-19T02:30:28.220Z,96.36
2019-04-19T02:31:37.425Z,96.55
2019-04-19T02:32:32.635Z,96.26
2019-04-19T02:33:41.113Z,96.26
2019-04-19T02:34:43.007Z,96.26
2019-04-19T02:35:34.875Z,96.55
2019-04-19T02:36:48.316Z,95.98
2019-04-19T02:37:39.721Z,96.55
2019-04-19T02:38:54.484Z,96.64
2019-04-19T02:40:52.899Z,96.17
2019-04-19T02:41:46.041Z,96.64
2019-04-19T02:44:45.806Z,96.55
2019-04-19T02:45:44.607Z,96.45
2019-04-19T02:47:01.164Z,96.36
2019-04-19T02:48:48.716Z,96.26
2019-04-19T02:49:44.775Z,96.45
2019-04-19T02:51:39.404Z,96.17
2019-04-19T02:52:42.870Z,96.55
2019-04-19T02:53:39.487Z,96.36
2019-04-19T02:54:42.231Z,96.55
2019-04-19T02:55:43.092Z,96.26
2019-04-19T02:56:59.297Z,96.55
2019-04-19T02:58:40.087Z,96.45
2019-04-19T02:59:47.349Z,96.17
2019-04-19T03:01:44.386Z,96.17
2019-04-19T03:02:50.342Z,96.26
2019-04-19T03:03:31.560Z,95.79
2019-04-19T03:04:58.958Z,96.26
2019-04-19T03:05:37.736Z,96.31
2019-04-19T03:06:26.023Z,96.50
2019-04-19T03:07:15.834Z,96.12
2019-04-19T03:08:14.586Z,95.84
2019-04-19T03:09:15.489Z,96.31
2019-04-19T03:10:19.376Z,96.03
2019-04-19T03:11:33.791Z,96.31
2019-04-19T03:12:32.880Z,96.41
2019-04-19T03:13:31.070Z,95.65
2019-04-19T03:14:35.153Z,96.03
2019-04-19T03:15:36.409Z,96.59
2019-04-19T03:16:37.102Z,96.41
2019-04-19T03:17:34.628Z,96.31
2019-04-19T03:18:38.786Z,96.31
2019-04-19T03:19:25.016Z,96.22
2019-04-19T03:20:32.382Z,96.03
2019-04-19T03:21:33.003Z,96.22
2019-04-19T03:22:28.405Z,96.03
2019-04-19T03:23:26.308Z,95.74
2019-04-19T03:24:30.172Z,95.55
2019-04-19T03:25:27.807Z,95.84
2019-04-19T03:26:32.674Z,96.50
2019-04-19T03:27:22.994Z,96.22
2019-04-19T03:28:26.146Z,96.22
2019-04-19T03:29:22.828Z,96.22
2019-04-19T03:30:38.181Z,96.22
2019-04-19T03:31:51.585Z,96.12
2019-04-19T03:33:41.960Z,95.93
2019-04-19T03:34:50.302Z,96.41
2019-04-19T03:35:41.334Z,96.22
2019-04-19T03:36:35.526Z,96.22
2019-04-19T03:37:36.520Z,96.41
2019-04-19T03:38:35.041Z,96.03
2019-04-19T03:39:38.768Z,96.12
2019-04-19T03:40:36.077Z,96.31
2019-04-19T03:41:51.088Z,96.22
2019-04-19T03:42:42.074Z,96.12
2019-04-19T03:43:35.296Z,95.55
2019-04-19T03:44:33.928Z,96.03
2019-04-19T03:45:33.542Z,96.03
2019-04-19T03:46:40.502Z,95.93
2019-04-19T03:47:42.495Z,95.93
2019-04-19T03:48:47.900Z,96.12
2019-04-19T03:49:34.740Z,96.03
2019-04-19T03:50:31.763Z,96.12
2019-04-19T03:51:34.322Z,96.22
2019-04-19T03:52:35.745Z,96.12
2019-04-19T03:53:47.746Z,96.12
2019-04-19T03:54:32.807Z,96.03
2019-04-19T03:55:39.388Z,95.74
2019-04-19T03:56:33.185Z,96.41
2019-04-19T03:57:29.706Z,95.93
2019-04-19T03:58:20.070Z,96.12
2019-04-19T03:59:16.496Z,95.65
2019-04-19T04:00:17.404Z,95.55
2019-04-19T04:01:17.093Z,96.22
2019-04-19T04:02:24.524Z,96.22
2019-04-19T04:03:24.325Z,96.22
2019-04-19T04:04:22.186Z,96.22
2019-04-19T04:05:18.021Z,95.65
2019-04-19T04:06:22.014Z,95.84
2019-04-19T04:07:21.999Z,95.55
2019-04-19T04:08:20.872Z,96.22
2019-04-19T04:09:16.857Z,95.93
2019-04-19T04:10:24.921Z,96.12
2019-04-19T04:11:20.273Z,96.22
2019-04-19T04:12:30.062Z,96.08
2019-04-19T04:13:29.692Z,96.12
2019-04-19T04:14:26.784Z,96.17
2019-04-19T04:15:25.846Z,96.26
2019-04-19T04:16:25.114Z,95.88
2019-04-19T04:17:18.464Z,95.41
2019-04-19T04:18:17.565Z,95.88
2019-04-19T04:19:18.518Z,95.88
2019-04-19T04:20:17.754Z,95.69
2019-04-19T04:21:20.301Z,96.08
2019-04-19T04:22:23.866Z,95.31
2019-04-19T04:23:25.363Z,96.08
2019-04-19T04:24:24.771Z,95.79
2019-04-19T04:25:22.596Z,95.65
2019-04-19T04:26:23.929Z,95.60
2019-04-19T04:27:32.914Z,95.79
2019-04-19T04:28:34.038Z,96.17
2019-04-19T04:29:27.396Z,95.79
2019-04-19T04:30:27.920Z,95.60
2019-04-19T04:31:27.450Z,96.08
2019-04-19T04:32:28.102Z,96.22
2019-04-19T04:33:33.677Z,95.88
2019-04-19T04:34:33.063Z,96.12
2019-04-19T04:35:30.313Z,96.12
2019-04-19T04:36:38.553Z,95.93
2019-04-19T04:37:33.266Z,96.22
2019-04-19T04:38:25.824Z,95.65
2019-04-19T04:39:17.987Z,96.22
2019-04-19T04:40:18.821Z,96.03
2019-04-19T04:41:23.628Z,95.74
2019-04-19T04:42:26.584Z,95.84
2019-04-19T04:43:31.391Z,95.74
2019-04-19T04:44:33.234Z,96.41
2019-04-19T04:45:34.287Z,95.93
2019-04-19T04:46:38.816Z,95.93
2019-04-19T04:47:36.882Z,96.31
2019-04-19T04:48:38.910Z,96.12
2019-04-19T04:49:41.358Z,96.03
2019-04-19T04:50:45.437Z,96.22
2019-04-19T04:51:34.771Z,95.60
2019-04-19T04:52:25.460Z,95.93
2019-04-19T04:53:19.369Z,96.31
2019-04-19T04:54:18.664Z,96.41
2019-04-19T04:55:18.586Z,96.03
2019-04-19T04:56:19.418Z,96.41
2019-04-19T04:57:28.370Z,95.74
2019-04-19T04:58:25.106Z,96.03
2019-04-19T04:59:22.286Z,96.03
2019-04-19T05:00:22.257Z,96.12
2019-04-19T05:01:29.091Z,96.22
2019-04-19T05:02:31.370Z,96.22
2019-04-19T05:03:38.987Z,95.93
2019-04-19T05:04:35.921Z,96.03
2019-04-19T05:05:36.064Z,95.74
2019-04-19T05:06:35.247Z,96.03
2019-04-19T05:07:39.125Z,95.93
2019-04-19T05:08:35.342Z,96.50
2019-04-19T05:09:41.614Z,96.59
2019-04-19T05:10:31.590Z,96.22
2019-04-19T05:11:33.945Z,95.93
2019-04-19T05:12:59.086Z,96.03
2019-04-19T05:13:38.901Z,96.31
2019-04-19T05:14:38.884Z,96.50
2019-04-19T05:15:40.273Z,95.93
2019-04-19T05:16:46.704Z,96.22
2019-04-19T05:17:46.031Z,96.03
2019-04-19T05:18:36.432Z,96.69
2019-04-19T05:19:45.153Z,96.12
2019-04-19T05:20:35.711Z,96.31
2019-04-19T05:21:37.218Z,96.69
2019-04-19T05:22:32.667Z,96.50
2019-04-19T05:23:43.144Z,96.41
2019-04-19T05:24:46.215Z,96.69
2019-04-19T05:25:41.357Z,96.50
2019-04-19T05:27:40.414Z,96.69
2019-04-19T05:28:37.385Z,96.64
2019-04-19T05:29:29.791Z,96.17
2019-04-19T05:30:33.121Z,96.59
2019-04-19T05:31:28.919Z,96.93
2019-04-19T05:32:28.053Z,96.64
2019-04-19T05:33:34.211Z,96.74
2019-04-19T05:34:36.341Z,96.83
2019-04-19T05:35:38.140Z,96.55
2019-04-19T05:36:38.723Z,96.93
2019-04-19T05:37:38.443Z,96.83
2019-04-19T05:38:42.659Z,96.74
2019-04-19T05:39:41.321Z,97.50
2019-04-19T05:40:35.456Z,97.69
2019-04-19T05:41:35.167Z,96.93
2019-04-19T05:42:41.686Z,96.93
2019-04-19T05:44:02.030Z,96.83
2019-04-19T05:44:41.274Z,97.41
2019-04-19T05:45:48.544Z,96.93
2019-04-19T05:46:41.875Z,97.69
2019-04-19T05:47:33.645Z,97.45
2019-04-19T05:48:34.894Z,97.45
2019-04-19T05:49:39.077Z,97.74
2019-04-19T05:50:39.548Z,97.07
2019-04-19T05:51:43.655Z,97.55
2019-04-19T05:52:39.581Z,97.45
2019-04-19T05:53:30.753Z,97.74
2019-04-19T05:54:22.108Z,97.64
2019-04-19T05:55:22.193Z,97.64
2019-04-19T05:56:22.119Z,97.45
2019-04-19T05:57:43.939Z,97.55
2019-04-19T05:58:31.794Z,97.07
2019-04-19T05:59:31.668Z,97.12
2019-04-19T06:00:37.850Z,97.12
2019-04-19T06:01:42.907Z,96.84
2019-04-19T06:02:28.475Z,97.03
2019-04-19T06:03:32.913Z,96.93
2019-04-19T06:04:43.673Z,97.12
2019-04-19T06:05:55.565Z,96.93
2019-04-19T06:06:45.454Z,97.12
2019-04-19T06:07:35.669Z,97.12
2019-04-19T06:08:27.878Z,97.22
2019-04-19T06:09:21.889Z,96.79
2019-04-19T06:10:21.433Z,97.08
2019-04-19T06:11:27.013Z,96.60
2019-04-19T06:12:26.841Z,96.69
2019-04-19T06:13:21.951Z,96.41
2019-04-19T06:14:45.086Z,96.60
2019-04-19T06:15:43.115Z,96.41
2019-04-19T06:16:39.556Z,96.89
2019-04-19T06:17:41.036Z,96.55
2019-04-19T06:18:36.143Z,96.17
2019-04-19T06:19:35.309Z,96.36
2019-04-19T06:20:39.708Z,96.08
2019-04-19T06:21:39.234Z,96.26
2019-04-19T06:22:44.468Z,96.17
2019-04-19T06:23:44.187Z,96.17
2019-04-19T06:24:43.141Z,96.12
2019-04-19T06:25:52.522Z,95.65
2019-04-19T06:27:53.188Z,95.75
2019-04-19T06:28:51.626Z,94.98
2019-04-19T06:29:50.519Z,94.79
2019-04-19T06:30:41.016Z,95.08
2019-04-19T06:31:48.748Z,95.12
2019-04-19T06:32:45.147Z,94.74
2019-04-19T06:33:42.294Z,94.46
2019-04-19T06:34:42.587Z,94.27
2019-04-19T06:35:33.068Z,94.46
2019-04-19T06:36:23.007Z,94.17
2019-04-19T06:37:27.577Z,94.46
2019-04-19T06:38:22.655Z,94.65
2019-04-19T06:39:22.665Z,94.41
2019-04-19T06:40:27.827Z,94.13
2019-04-19T06:41:25.464Z,93.65
2019-04-19T06:42:34.145Z,93.46
2019-04-19T06:43:35.984Z,93.93
2019-04-19T06:44:47.006Z,93.41
2019-04-19T06:45:43.178Z,93.03
2019-04-19T06:46:35.905Z,92.84
2019-04-19T06:47:30.303Z,92.93
2019-04-19T06:48:26.963Z,92.55
2019-04-19T06:49:26.714Z,92.74
2019-04-19T06:50:30.093Z,91.98
2019-04-19T06:51:31.683Z,92.22
2019-04-19T06:52:29.122Z,92.22
2019-04-19T06:53:23.124Z,91.83
2019-04-19T06:54:28.532Z,91.74
2019-04-19T06:55:28.539Z,91.36
2019-04-19T06:56:30.309Z,90.98
2019-04-19T06:57:30.080Z,90.50
2019-04-19T06:58:27.620Z,90.26
2019-04-19T06:59:38.143Z,89.78
2019-04-19T07:00:40.222Z,90.07
2019-04-19T07:01:33.369Z,89.88
2019-04-19T07:02:24.184Z,89.78
2019-04-19T07:03:23.702Z,89.59
2019-04-19T07:04:24.809Z,89.02
2019-04-19T07:05:39.428Z,88.16
2019-04-19T07:06:39.428Z,88.54
2019-04-19T07:07:43.957Z,88.68
2019-04-19T07:09:02.713Z,88.40
2019-04-19T07:09:53.453Z,88.59
2019-04-19T07:10:54.673Z,88.68
2019-04-19T07:11:48.194Z,88.30
2019-04-19T07:12:46.882Z,87.92
2019-04-19T07:13:35.688Z,88.01
2019-04-19T07:14:27.837Z,88.20
2019-04-19T07:15:49.718Z,88.01
2019-04-19T07:16:44.281Z,88.20
2019-04-19T07:17:39.151Z,87.77
2019-04-19T07:18:37.119Z,87.39
2019-04-19T07:19:46.916Z,87.48
2019-04-19T07:20:40.073Z,87.29
2019-04-19T07:21:42.734Z,87.39
2019-04-19T07:22:44.629Z,87.20
2019-04-19T07:23:44.533Z,86.91
2019-04-19T07:24:47.406Z,86.53
2019-04-19T07:25:48.895Z,85.58
2019-04-19T07:26:44.851Z,86.05
2019-04-19T07:27:36.697Z,85.90
2019-04-19T07:28:30.161Z,85.62
2019-04-19T07:29:25.487Z,85.14
2019-04-19T07:30:24.730Z,84.95
2019-04-19T07:31:25.826Z,84.95
2019-04-19T07:32:34.675Z,84.76
2019-04-19T07:33:37.402Z,85.24
2019-04-19T07:34:43.816Z,85.42
2019-04-19T07:35:47.269Z,85.33
2019-04-19T07:36:48.121Z,84.99
2019-04-19T07:37:41.831Z,85.85
2019-04-19T07:38:46.194Z,85.09
2019-04-19T07:39:48.265Z,84.61
2019-04-19T07:41:48.814Z,83.08
2019-04-19T07:42:38.791Z,81.49
2019-04-19T07:43:39.341Z,81.78
2019-04-19T07:44:35.729Z,81.11
2019-04-19T07:45:38.210Z,79.96
2019-04-19T07:46:48.938Z,79.58
2019-04-19T07:47:34.396Z,78.86
2019-04-19T07:48:26.219Z,78.09
2019-04-19T07:49:25.445Z,76.65
2019-04-19T07:50:29.839Z,76.31
2019-04-19T07:51:31.887Z,75.83
2019-04-19T07:52:35.564Z,75.93
2019-04-19T07:53:32.361Z,74.77
2019-04-19T07:54:28.889Z,73.57
2019-04-19T07:55:26.755Z,74.15
2019-04-19T07:56:39.126Z,73.47
2019-04-19T07:58:12.239Z,73.09
2019-04-19T07:58:52.142Z,73.47
2019-04-19T07:59:47.385Z,73.19
2019-04-19T08:00:54.119Z,72.90
2019-04-19T08:02:01.555Z,71.94
2019-04-19T08:05:13.978Z,73.38
2019-04-19T08:06:52.492Z,70.35
2019-04-19T08:12:14.970Z,70.73
2019-04-19T08:12:53.743Z,71.11
2019-04-19T08:14:00.112Z,71.40
2019-04-19T08:17:58.864Z,68.18
2019-04-19T08:27:35.493Z,66.64
2019-04-19T08:28:37.557Z,66.00
2019-04-19T08:29:38.448Z,65.81
2019-04-19T08:30:35.884Z,66.96
2019-04-19T08:31:27.575Z,65.62
2019-04-19T08:32:28.139Z,65.14
2019-04-19T08:33:27.600Z,66.29
2019-04-19T08:34:29.330Z,67.06
2019-04-19T08:35:27.789Z,66.29
2019-04-19T08:36:33.126Z,66.10
2019-04-19T08:37:33.998Z,64.76
2019-04-19T08:38:29.573Z,64.28
2019-04-19T08:39:46.488Z,64.66
2019-04-19T08:40:44.090Z,64.76
2019-04-19T08:41:46.854Z,64.18
2019-04-19T08:42:47.928Z,64.28
2019-04-19T08:43:49.221Z,63.89
2019-04-19T08:44:40.920Z,63.89
2019-04-19T08:45:30.011Z,64.76
2019-04-19T08:46:28.233Z,66.13
2019-04-19T08:47:36.859Z,65.75
2019-04-19T08:48:38.353Z,65.27
2019-04-19T08:49:33.623Z,64.69
2019-04-19T08:50:28.695Z,64.50
2019-04-19T08:51:32.997Z,63.92
2019-04-19T08:52:31.957Z,64.59
2019-04-19T08:53:45.089Z,64.31
2019-04-19T08:54:48.978Z,63.35
2019-04-19T08:55:46.188Z,63.92
2019-04-19T08:56:39.060Z,64.15
2019-04-19T08:57:29.481Z,62.61
2019-04-19T08:58:47.791Z,63.19
2019-04-19T08:59:50.879Z,62.13
2019-04-19T09:01:50.647Z,60.40
2019-04-19T09:02:45.556Z,62.13
2019-04-19T09:03:52.936Z,61.94
2019-04-19T09:04:46.790Z,61.94
2019-04-19T09:05:47.931Z,60.40
2019-04-19T09:07:52.504Z,61.17
2019-04-19T09:08:47.329Z,61.01
2019-04-19T09:09:52.279Z,60.31
2019-04-19T09:10:49.213Z,60.82
2019-04-19T09:11:48.004Z,59.38
2019-04-19T09:12:55.642Z,58.89
2019-04-19T09:13:51.024Z,59.38
2019-04-19T09:14:52.822Z,58.89
2019-04-19T09:15:46.057Z,60.43
2019-04-19T09:16:55.882Z,62.16
2019-04-19T09:18:15.779Z,62.26
2019-04-19T09:18:55.810Z,62.16
2019-04-19T09:20:52.223Z,60.43
2019-04-19T09:21:41.763Z,61.11
2019-04-19T09:22:45.120Z,59.66
2019-04-19T09:23:40.357Z,59.47
2019-04-19T09:24:42.841Z,59.57
2019-04-19T09:25:42.133Z,59.28
2019-04-19T09:26:44.742Z,58.92
2019-04-19T09:27:48.889Z,59.89
2019-04-19T09:28:50.855Z,58.61
2019-04-19T09:29:51.697Z,58.35
2019-04-19T09:30:49.865Z,57.87
2019-04-19T09:31:43.958Z,58.73
2019-04-19T09:32:35.264Z,57.29
2019-04-19T09:33:35.529Z,57.77
2019-04-19T09:34:31.986Z,58.83
2019-04-19T09:35:31.055Z,57.51
2019-04-19T09:36:38.033Z,56.93
2019-04-19T09:37:46.650Z,57.80
2019-04-19T09:38:49.266Z,59.05
2019-04-19T09:39:41.355Z,58.09
2019-04-19T09:40:39.263Z,57.42
2019-04-19T09:41:38.834Z,56.74
2019-04-19T09:42:44.647Z,57.80
2019-04-19T09:43:42.485Z,55.98
2019-04-19T09:44:39.401Z,56.10
2019-04-19T09:45:31.797Z,55.88
2019-04-19T09:46:31.760Z,55.88
2019-04-19T09:47:31.300Z,55.68
2019-04-19T09:48:49.511Z,55.13
2019-04-19T09:49:46.262Z,55.04
2019-04-19T09:50:44.250Z,55.49
2019-04-19T09:51:46.849Z,56.26
2019-04-19T09:52:55.575Z,55.90
2019-04-19T09:53:54.408Z,55.71
2019-04-19T09:54:50.140Z,55.62
2019-04-19T09:55:52.081Z,55.71
2019-04-19T09:56:46.814Z,55.81
2019-04-19T09:57:49.802Z,57.25
2019-04-19T09:58:49.087Z,55.52
2019-04-19T09:59:35.812Z,54.65
2019-04-19T10:00:32.373Z,54.94
2019-04-19T10:01:37.347Z,54.94
2019-04-19T10:02:39.252Z,53.98
2019-04-19T10:03:41.210Z,54.56
2019-04-19T10:04:31.655Z,53.78
2019-04-19T10:05:32.703Z,55.13
2019-04-19T10:06:31.466Z,54.75
2019-04-19T10:07:32.620Z,55.07
2019-04-19T10:08:32.166Z,55.26
2019-04-19T10:09:31.611Z,54.00
2019-04-19T10:10:31.664Z,54.39
2019-04-19T10:11:32.825Z,53.72
2019-04-19T10:12:31.734Z,53.05
2019-04-19T10:13:32.130Z,53.53
2019-04-19T10:14:33.176Z,53.72
2019-04-19T10:15:32.189Z,53.43
2019-04-19T10:16:32.648Z,52.75
2019-04-19T10:17:31.976Z,52.66
2019-04-19T10:18:44.273Z,52.37
2019-04-19T10:19:32.792Z,53.05
2019-04-19T10:20:33.068Z,54.68
2019-04-19T10:21:35.352Z,54.78
2019-04-19T10:22:32.854Z,55.07
2019-04-19T10:23:32.232Z,54.87
2019-04-19T10:24:33.370Z,55.74
2019-04-19T10:25:33.256Z,55.74
2019-04-19T10:26:32.378Z,55.83
2019-04-19T10:27:33.368Z,53.81
2019-04-19T10:28:32.471Z,53.91
2019-04-19T10:29:38.060Z,53.33
2019-04-19T10:30:32.547Z,53.81
2019-04-19T10:31:33.665Z,55.96
2019-04-19T10:32:32.998Z,54.90
2019-04-19T10:33:38.908Z,54.03
2019-04-19T10:34:32.749Z,53.36
2019-04-19T10:35:33.615Z,53.94
2019-04-19T10:36:33.113Z,53.27
2019-04-19T10:37:33.628Z,53.07
2019-04-19T10:38:33.908Z,52.40
2019-04-19T10:39:34.046Z,52.69
2019-04-19T10:40:33.520Z,53.14
2019-04-19T10:41:34.164Z,53.62
2019-04-19T10:42:33.526Z,54.52
2019-04-19T10:43:33.141Z,53.45
2019-04-19T10:44:34.088Z,54.71
2019-04-19T10:45:34.175Z,54.22
2019-04-19T10:46:34.153Z,54.90
2019-04-19T10:47:33.633Z,54.42
2019-04-19T10:48:34.716Z,53.65
2019-04-19T10:49:43.845Z,53.84
2019-04-19T10:50:41.900Z,54.52
2019-04-19T10:51:33.502Z,54.80
2019-04-19T10:52:33.550Z,54.64
2019-04-19T10:53:34.601Z,54.93
2019-04-19T10:54:33.680Z,55.77
2019-04-19T10:55:34.115Z,54.64
2019-04-19T10:56:34.242Z,55.02
2019-04-19T10:57:33.777Z,53.87
2019-04-19T10:58:34.465Z,53.29
2019-04-19T10:59:34.410Z,53.29
2019-04-19T11:00:33.913Z,53.77
2019-04-19T11:01:33.965Z,54.06
2019-04-19T11:02:34.678Z,54.93
2019-04-19T11:03:34.822Z,55.02
2019-04-19T11:04:35.165Z,55.51
2019-04-19T11:05:34.530Z,55.60
2019-04-19T11:06:35.493Z,53.67
2019-04-19T11:07:35.217Z,53.77
2019-04-19T11:08:34.279Z,53.67
2019-04-19T11:09:35.449Z,54.54
2019-04-19T11:10:35.604Z,54.44
2019-04-19T11:11:34.414Z,54.16
2019-04-19T11:12:34.468Z,53.67
2019-04-19T11:13:34.515Z,55.02
2019-04-19T11:14:34.593Z,53.96
2019-04-19T11:15:34.601Z,54.74
2019-04-19T11:16:35.369Z,54.16
2019-04-19T11:17:35.855Z,53.77
2019-04-19T11:18:35.294Z,54.74
2019-04-19T11:19:49.741Z,54.54
2019-04-19T11:20:43.152Z,54.25
2019-04-19T11:21:35.818Z,53.87
2019-04-19T11:22:35.505Z,53.96
2019-04-19T11:23:35.737Z,53.96
2019-04-19T11:24:36.059Z,54.66
2019-04-19T11:25:35.796Z,54.18
2019-04-19T11:26:35.104Z,54.57
2019-04-19T11:27:35.326Z,54.76
2019-04-19T11:28:35.205Z,53.70
2019-04-19T11:29:36.539Z,53.70
2019-04-19T11:30:35.288Z,54.09
2019-04-19T11:31:36.085Z,53.41
2019-04-19T11:32:35.797Z,54.38
2019-04-19T11:33:35.429Z,53.99
2019-04-19T11:34:35.566Z,53.80
2019-04-19T11:35:35.524Z,52.73
2019-04-19T11:36:35.740Z,53.89
2019-04-19T11:37:35.613Z,53.22
2019-04-19T11:38:36.716Z,53.41
2019-04-19T11:39:36.883Z,52.73
2019-04-19T11:40:35.745Z,53.80
2019-04-19T11:41:36.930Z,55.63
2019-04-19T11:42:37.181Z,55.24
2019-04-19T11:43:35.882Z,53.89
2019-04-19T11:44:36.041Z,53.03
2019-04-19T11:45:35.983Z,54.09
2019-04-19T11:46:36.118Z,54.28
2019-04-19T11:47:37.396Z,53.51
2019-04-19T11:48:37.470Z,52.73
2019-04-19T11:49:40.224Z,54.28
2019-04-19T11:50:36.204Z,54.66
2019-04-19T11:51:36.266Z,54.21
2019-04-19T11:52:37.625Z,53.34
2019-04-19T11:53:36.624Z,53.51
2019-04-19T11:54:36.693Z,53.34
2019-04-19T11:55:36.439Z,53.63
2019-04-19T11:56:47.168Z,53.34
2019-04-19T11:57:36.611Z,53.15
2019-04-19T11:58:36.574Z,54.11
2019-04-19T11:59:42.479Z,53.83
2019-04-19T12:00:37.914Z,52.86
2019-04-19T12:01:37.439Z,53.44
2019-04-19T12:02:37.871Z,54.31
2019-04-19T12:03:39.087Z,53.92
2019-04-19T12:04:36.860Z,54.02
2019-04-19T12:05:37.898Z,52.95
2019-04-19T12:06:36.941Z,53.53
2019-04-19T12:07:37.008Z,53.25
2019-04-19T12:08:39.630Z,53.15
2019-04-19T12:09:37.087Z,52.57
2019-04-19T12:10:37.177Z,52.86
2019-04-19T12:11:38.044Z,54.02
2019-04-19T12:12:37.388Z,52.67
2019-04-19T12:13:39.214Z,53.15
2019-04-19T12:14:37.642Z,54.21
2019-04-19T12:15:37.907Z,53.66
2019-04-19T12:16:37.404Z,53.05
2019-04-19T12:17:37.452Z,51.12
2019-04-19T12:18:40.105Z,52.21
2019-04-19T12:19:48.257Z,52.86
2019-04-19T12:20:37.594Z,52.95
2019-04-19T12:21:39.050Z,52.37
2019-04-19T12:22:37.953Z,52.11
2019-04-19T12:23:38.949Z,52.79
2019-04-19T12:24:38.443Z,53.08
2019-04-19T12:25:37.824Z,52.69
2019-04-19T12:26:37.870Z,53.56
2019-04-19T12:27:37.913Z,52.69
2019-04-19T12:28:37.960Z,52.59
2019-04-19T12:29:44.261Z,51.53
2019-04-19T12:30:44.348Z,50.06
2019-04-19T12:31:39.151Z,51.05
2019-04-19T12:32:39.367Z,51.25
2019-04-19T12:33:39.473Z,51.61
2019-04-19T12:34:38.245Z,53.17
2019-04-19T12:35:39.105Z,51.53
2019-04-19T12:36:39.324Z,51.73
2019-04-19T12:37:38.378Z,51.92
2019-04-19T12:38:38.421Z,52.01
2019-04-19T12:39:38.972Z,50.96
2019-04-19T12:40:38.516Z,51.63
2019-04-19T12:41:39.741Z,51.63
2019-04-19T12:42:38.616Z,51.53
2019-04-19T12:43:38.654Z,52.01
2019-04-19T12:44:39.378Z,52.79
2019-04-19T12:45:40.049Z,52.69
2019-04-19T12:46:39.084Z,53.08
2019-04-19T12:47:38.839Z,53.37
2019-04-19T12:48:39.631Z,53.27
2019-04-19T12:49:51.024Z,51.56
2019-04-19T12:50:40.423Z,51.63
2019-04-19T12:51:39.742Z,50.28
2019-04-19T12:52:40.070Z,51.63
2019-04-19T12:53:39.292Z,52.98
2019-04-19T12:54:39.320Z,53.37
2019-04-19T12:55:39.930Z,53.20
2019-04-19T12:56:40.229Z,51.56
2019-04-19T12:57:39.347Z,52.01
2019-04-19T12:58:39.829Z,51.56
2019-04-19T12:59:40.071Z,52.14
2019-04-19T13:00:39.443Z,51.65
2019-04-19T13:01:39.811Z,52.04
2019-04-19T13:02:39.961Z,51.75
2019-04-19T13:03:39.732Z,51.37
2019-04-19T13:04:40.207Z,51.27
2019-04-19T13:05:39.687Z,51.56
2019-04-19T13:06:39.973Z,51.75
2019-04-19T13:07:41.005Z,51.65
2019-04-19T13:08:41.116Z,50.11
2019-04-19T13:09:41.155Z,50.11
2019-04-19T13:10:40.778Z,50.50
2019-04-19T13:11:41.051Z,50.40
2019-04-19T13:12:41.881Z,51.27
2019-04-19T13:13:40.052Z,50.69
2019-04-19T13:14:40.103Z,51.07
2019-04-19T13:15:40.585Z,51.17
2019-04-19T13:16:40.286Z,50.21
2019-04-19T13:17:40.279Z,50.50
2019-04-19T13:18:40.356Z,49.92
2019-04-19T13:19:40.805Z,50.98
2019-04-19T13:20:40.499Z,51.37
2019-04-19T13:21:40.585Z,50.40
2019-04-19T13:22:40.754Z,50.31
2019-04-19T13:23:40.514Z,50.40
2019-04-19T13:24:40.585Z,50.69
2019-04-19T13:25:41.638Z,49.82
2019-04-19T13:26:41.199Z,49.92